1946 Tropical Cyclone NOT_NAMED (1946038S13150)


IBTrACS version v04r00. Visit IBTrACS website for data access.
Please direct all questions to the IBTrACS Q and A forum

Storm track - Intensity - Wind Radii - Intensity Data - Source Data - All data

Summary Information

Storm ID 1946038S13150
Start Feb 6 23Z
Landfall Feb 8 20Z, Feb 11 21Z
Max Intensity 35 kt (Feb 9 00Z), 996 mb (Feb 8 20Z)
End Feb 12 00Z
ATCF IDs ,SH101946
Track status Best track data.

Storm track plot

Map of storm track

Intensity plots

Map of storm track

Radial wind information

No radial wind information for this storm


Position and Intensity Table

BASIN ISO_TIME_________ NATURE LAT LON WMO PRES BOM PRES DS824 WIND DS824 PRES
degrees north degrees east mb mb kts mb
SP 1946-02-06 23:00:00 NR -12.70 150.40 1002 1002
SP 1946-02-07 00:00:00 TS -12.76 150.29 25 1002
SP 03:00:00 TS -12.96 149.93
SP 06:00:00 TS -13.16 149.58
SP 09:00:00 TS -13.38 149.25
SP 11:00:00 TS -13.51 149.04
SP 12:00:00 TS -13.58 148.94
SP 15:00:00 TS -13.76 148.65
SP 16:00:00 TS -13.82 148.55
SP 18:00:00 TS -13.94 148.37
SP 21:00:00 TS -14.17 148.08
SP 23:00:00 TS -14.34 147.88 999 999
SP 1946-02-08 00:00:00 TS -14.44 147.78 30 999
SP 03:00:00 TS -14.77 147.48
SP 06:00:00 TS -15.14 147.19
SP 09:00:00 TS -15.51 146.91
SP 11:00:00 TS -15.76 146.72
SP 12:00:00 TS -15.90 146.64
SP 14:00:00 TS -16.18 146.48
SP 15:00:00 TS -16.33 146.41
SP 18:00:00 TS -16.75 146.15
SP 20:00:00 TS -17.01 145.91 996 996
SP 21:00:00 TS -17.12 145.78 996
SP 23:00:00 TS -17.31 145.46 996 996
SP 1946-02-09 00:00:00 TS -17.38 145.29 35 996
SP 03:00:00 TS -17.49 144.67
SP 06:00:00 TS -17.46 143.98
SP 09:00:00 TS -17.36 143.30
SP 11:00:00 TS -17.24 142.83
SP 12:00:00 TS -17.17 142.60
SP 15:00:00 TS -16.90 141.90
SP 17:00:00 TS -16.71 141.44
SP 18:00:00 TS -16.62 141.22
SP 21:00:00 TS -16.40 140.58
SP 23:00:00 TS -16.28 140.21 1000 1000
SP 1946-02-10 00:00:00 TS -16.24 140.05
SP 03:00:00 TS -16.15 139.70
SP 06:00:00 TS -16.11 139.45
SP 09:00:00 TS -16.07 139.23
SP 11:00:00 TS -16.04 139.08
SP 12:00:00 TS -16.03 139.00
SP 15:00:00 TS -15.97 138.72
SP 18:00:00 TS -15.91 138.43
SP 21:00:00 TS -15.88 138.17
SP 23:00:00 TS -15.86 138.01
SP 23:30:00 TS -15.86 137.97 999 999
SP 1946-02-11 00:00:00 TS -15.86 137.94 30 999
SP 03:00:00 TS -15.85 137.75
SP 06:00:00 TS -15.85 137.60
SP 09:00:00 TS -15.86 137.43
SP 11:00:00 TS -15.86 137.32
SP 12:00:00 TS -15.86 137.25
SP 15:00:00 TS -15.86 137.05
SP 17:00:00 TS -15.85 136.89 1000 1000
SP 18:00:00 TS -15.84 136.80 1000
SP 21:00:00 TS -15.82 136.55 1000
SP 23:00:00 TS -15.82 136.38 1000
SP 23:30:00 TS -15.80 136.32 1000 1000
SP 1946-02-12 00:00:00 TS -15.80 136.30 30 1000

Source Information

Agency Information
USA bsh101946.txt
TOKYO
CMA
HKO
NEWDELHI
REUNION
BOM IDCKMSTM0S.csv:Line=1290:unnamed
NADI
WELLINGTON
DS824 aus_area.dat:137:NOT NAMED
TD9636 cons_worldwide_trop_cyclone_18710101-19891231-006:Line=2923
TD9635
NEUMANN
MLC

All available IBTrACS Data

SEASON BASIN SUBBASIN ISO_TIME_________ NATURE LAT LON WMO PRES WMO AGENCY DIST2LAND LANDFALL IFLAG USA AGENCY USA ATCF_ID USA LAT USA LON USA SSHS BOM LAT BOM LON BOM PRES BOM PRES_METHOD DS824 LAT DS824 LON DS824 STAGE DS824 WIND DS824 PRES TD9636 LAT TD9636 LON TD9636 STAGE STORM SPEED STORM DIR
Year degrees north degrees east mb km km degrees north degrees east 1 degrees north degrees east mb degrees north degrees east kts mb degrees north degrees east kts degrees
1946 SP EA 1946-02-06 23:00:00 NR -12.70 150.40 1002 bom 223 223 ______O___O___ -1 -12.70 150.40 1002 -12.70 150.40 7 8 239
1946 SP EA 1946-02-07 00:00:00 TS -12.76 150.29 235 235 O_____P__OP___ jtwc_sh SH101946 -12.80 150.30 -1 -12.73 150.28 -12.70 150.30 TC 25 1002 -12.79 150.29 7 8 240
1946 SP EA 03:00:00 TS -12.96 149.93 259 259 P_____P__PP___ SH101946 -13.05 149.94 -1 -12.83 149.91 -12.83 149.93 TC -13.07 149.95 7 8 240
1946 SP EA 06:00:00 TS -13.16 149.58 287 287 O_____P__PP___ jtwc_sh SH101946 -13.30 149.60 -1 -12.94 149.55 -12.98 149.56 TC -13.33 149.62 7 8 238
1946 SP EA 09:00:00 TS -13.38 149.25 317 317 P_____P__PP___ SH101946 -13.56 149.29 -1 -13.07 149.19 -13.13 149.20 TC -13.56 149.30 7 8 236
1946 SP EA 11:00:00 TS -13.51 149.04 339 339 P_____P__PO___ SH101946 -13.73 149.09 -1 -13.17 148.96 -13.25 148.96 TC -13.70 149.10 7 7 236
1946 SP EA 12:00:00 TS -13.58 148.94 353 353 O_____P__PP___ jtwc_sh SH101946 -13.80 149.00 -1 -13.23 148.84 -13.31 148.84 TC -13.76 149.00 7 7 238
1946 SP EA 15:00:00 TS -13.76 148.65 380 380 P_____P__PP___ SH101946 -13.96 148.75 -1 -13.42 148.51 -13.52 148.50 TC -13.93 148.73 7 7 238
1946 SP EA 16:00:00 TS -13.82 148.55 bom 380 355 P_____O__PP___ SH101946 -14.00 148.67 -1 -13.50 148.40 -13.60 148.39 TC -13.98 148.64 7 7 236
1946 SP EA 18:00:00 TS -13.94 148.37 355 314 O_____P__PP___ jtwc_sh SH101946 -14.10 148.50 -1 -13.67 148.19 -13.77 148.18 TC -14.09 148.46 7 7 233
1946 SP EA 21:00:00 TS -14.17 148.08 314 290 P_____P__PP___ SH101946 -14.28 148.21 -1 -13.97 147.89 -14.06 147.88 TC -14.26 148.19 7 7 230
1946 SP EA 23:00:00 TS -14.34 147.88 999 bom 290 277 P_____O__PO___ SH101946 -14.42 148.01 -1 -14.20 147.70 999 -14.28 147.69 TC -14.40 148.00 7 8 226
1946 SP EA 1946-02-08 00:00:00 TS -14.44 147.78 277 232 O_____P__OP___ jtwc_sh SH101946 -14.50 147.90 -1 -14.33 147.62 -14.40 147.60 TC 30 999 -14.48 147.90 7 9 222
1946 SP EA 03:00:00 TS -14.77 147.48 232 194 P_____P__PP___ SH101946 -14.79 147.55 -1 -14.76 147.40 -14.80 147.35 TC -14.73 147.57 7 9 219
1946 SP EA 06:00:00 TS -15.14 147.19 194 162 O_____P__PP___ jtwc_sh SH101946 -15.10 147.20 -1 -15.25 147.21 -15.24 147.10 TC -15.03 147.24 7 9 217
1946 SP EA 09:00:00 TS -15.51 146.91 162 135 P_____P__PP___ SH101946 -15.38 146.88 -1 -15.74 147.01 -15.68 146.86 TC -15.36 146.91 7 9 216
1946 SP EA 11:00:00 TS -15.76 146.72 132 130 P_____P__PO___ SH101946 -15.58 146.69 -1 -16.06 146.86 -15.98 146.69 TC -15.60 146.70 7 9 213
1946 SP EA 12:00:00 TS -15.90 146.64 119 106 O_____P__PP___ jtwc_sh SH101946 -15.70 146.60 -1 -16.21 146.78 -16.12 146.60 TC -15.74 146.62 7 10 209
1946 SP EA 14:00:00 TS -16.18 146.48 bom 106 92 P_____O__PP___ SH101946 -15.98 146.47 -1 -16.50 146.60 -16.40 146.41 TC -16.05 146.47 7 10 207
1946 SP EA 15:00:00 TS -16.33 146.41 92 46 P_____P__PP___ SH101946 -16.13 146.41 -1 -16.64 146.51 -16.53 146.31 TC -16.21 146.40 7 10 210
1946 SP EA 18:00:00 TS -16.75 146.15 30 0 O_____P__PP___ jtwc_sh SH101946 -16.60 146.20 -1 -17.01 146.20 -16.88 145.97 TC -16.68 146.16 7 10 215
1946 SP EA 20:00:00 TS -17.01 145.91 996 bom 0 0 P_____O__PP___ SH101946 -16.91 145.99 -1 -17.20 145.90 996 -17.06 145.71 TC -16.96 145.97 7 10 223
1946 SP EA 21:00:00 TS -17.12 145.78 0 0 P_____P__PP___ SH101946 -17.05 145.87 -1 -17.28 145.72 996 -17.14 145.57 TC -17.09 145.86 7 11 235
1946 SP EA 23:00:00 TS -17.31 145.46 996 bom 0 0 P_____O__PO___ SH101946 -17.30 145.57 -1 -17.40 145.30 996 4 -17.26 145.27 TC -17.30 145.60 7 11 241
1946 SP EA 1946-02-09 00:00:00 TS -17.38 145.29 0 0 O_____P__OP___ jtwc_sh SH101946 -17.40 145.40 -1 -17.44 145.09 -17.30 145.10 TC 35 996 -17.38 145.43 7 12 257
1946 SP EA 03:00:00 TS -17.49 144.67 0 0 P_____P__PP___ SH101946 -17.58 144.79 -1 -17.44 144.43 -17.28 144.48 TC -17.56 144.86 7 12 266
1946 SP EA 06:00:00 TS -17.46 143.98 0 0 O_____P__PP___ jtwc_sh SH101946 -17.60 144.10 -1 -17.32 143.73 -17.17 143.79 TC -17.62 144.19 7 13 276
1946 SP EA 09:00:00 TS -17.36 143.30 0 0 P_____P__PP___ SH101946 -17.56 143.46 -1 -17.10 143.02 -16.98 143.06 TC -17.58 143.48 7 13 281
1946 SP EA 11:00:00 TS -17.24 142.83 0 0 P_____P__PO___ SH101946 -17.47 143.02 -1 -16.93 142.55 -16.84 142.58 TC -17.50 143.00 7 14 286
1946 SP EA 12:00:00 TS -17.17 142.60 0 0 O_____P__PP___ jtwc_sh SH101946 -17.40 142.80 -1 -16.84 142.32 -16.76 142.33 TC -17.44 142.76 7 14 291
1946 SP EA 15:00:00 TS -16.90 141.90 0 0 P_____P__PP___ SH101946 -17.11 142.10 -1 -16.57 141.63 -16.52 141.64 TC -17.19 142.01 7 14 292
1946 SP EA 17:00:00 TS -16.71 141.44 bom 0 0 P_____O__PP___ SH101946 -16.90 141.63 -1 -16.40 141.20 -16.37 141.20 TC -16.98 141.53 7 14 293
1946 SP EA 18:00:00 TS -16.62 141.22 10 10 O_____P__OP___ jtwc_sh SH101946 -16.80 141.40 -1 -16.33 140.99 -16.30 141.00 TC -16.87 141.29 7 13 291
1946 SP EA 21:00:00 TS -16.40 140.58 72 72 P_____P__PP___ SH101946 -16.56 140.68 -1 -16.12 140.37 -16.18 140.50 TC -16.57 140.65 7 12 289
1946 SP EA 23:00:00 TS -16.28 140.21 1000 bom 115 115 P_____O__PO___ SH101946 -16.44 140.27 -1 -16.00 140.00 1000 -16.12 140.21 TC -16.40 140.30 7 11 288
1946 SP EA 1946-02-10 00:00:00 TS -16.24 140.05 130 104 O_____P__PP___ jtwc_sh SH101946 -16.40 140.10 -1 -15.95 139.83 -16.09 140.07 TC -16.35 140.16 7 8 285
1946 SP EA 03:00:00 TS -16.15 139.70 104 104 P_____P__PP___ SH101946 -16.33 139.78 -1 -15.83 139.40 -16.01 139.69 TC -16.27 139.85 7 6 283
1946 SP EA 06:00:00 TS -16.11 139.45 104 92 O_____P__PP___ jtwc_sh SH101946 -16.30 139.60 -1 -15.75 139.06 -15.94 139.37 TC -16.23 139.63 7 5 280
1946 SP EA 09:00:00 TS -16.07 139.23 92 90 P_____P__PP___ SH101946 -16.26 139.42 -1 -15.72 138.79 -15.90 139.08 TC -16.21 139.44 7 4 280
1946 SP EA 11:00:00 TS -16.04 139.08 101 99 P_____P__PO___ SH101946 -16.22 139.28 -1 -15.71 138.65 -15.87 138.91 TC -16.20 139.30 7 4 280
1946 SP EA 12:00:00 TS -16.03 139.00 99 90 O_____P__PP___ jtwc_sh SH101946 -16.20 139.20 -1 -15.71 138.58 -15.86 138.83 TC -16.17 139.19 7 5 282
1946 SP EA 15:00:00 TS -15.97 138.72 90 82 P_____P__PP___ SH101946 -16.10 138.86 -1 -15.72 138.41 -15.83 138.60 TC -16.09 138.85 7 6 282
1946 SP EA 18:00:00 TS -15.91 138.43 82 63 O_____P__PP___ jtwc_sh SH101946 -16.00 138.50 -1 -15.75 138.26 -15.82 138.39 TC -16.01 138.51 7 5 280
1946 SP EA 21:00:00 TS -15.88 138.17 63 46 P_____P__PP___ SH101946 -15.94 138.17 -1 -15.78 138.12 -15.81 138.20 TC -15.94 138.18 7 5 277
1946 SP EA 23:00:00 TS -15.86 138.01 46 46 P_____P__PO___ SH101946 -15.91 137.98 -1 -15.80 138.03 -15.80 138.07 TC -15.90 138.00 7 5 275
1946 SP EA 23:30:00 TS -15.86 137.97 999 bom 46 46 P_____O__PP___ SH101946 -15.90 137.94 -1 -15.80 138.00 999 -15.80 138.03 TC -15.89 137.96 7 4 274
1946 SP EA 1946-02-11 00:00:00 TS -15.86 137.94 39 35 O_____P__OP___ jtwc_sh SH101946 -15.90 137.90 -1 -15.80 137.96 -15.80 138.00 TC 30 999 -15.89 137.93 7 4 273
1946 SP EA 03:00:00 TS -15.85 137.75 46 30 P_____P__PP___ SH101946 -15.89 137.73 -1 -15.79 137.76 -15.80 137.80 TC -15.88 137.76 7 3 271
1946 SP EA 06:00:00 TS -15.85 137.60 30 22 O_____P__PP___ jtwc_sh SH101946 -15.90 137.60 -1 -15.79 137.55 -15.79 137.59 TC -15.88 137.63 7 3 269
1946 SP EA 09:00:00 TS -15.86 137.43 22 15 P_____P__PP___ SH101946 -15.90 137.46 -1 -15.79 137.35 -15.79 137.38 TC -15.89 137.50 7 3 269
1946 SP EA 11:00:00 TS -15.86 137.32 15 15 P_____P__PO___ SH101946 -15.90 137.36 -1 -15.79 137.22 -15.79 137.24 TC -15.90 137.40 7 3 269
1946 SP EA 12:00:00 TS -15.86 137.25 15 11 O_____P__PP___ jtwc_sh SH101946 -15.90 137.30 -1 -15.80 137.15 -15.79 137.17 TC -15.90 137.34 7 4 270
1946 SP EA 15:00:00 TS -15.86 137.05 11 11 P_____P__PP___ SH101946 -15.90 137.11 -1 -15.80 136.94 -15.79 136.96 TC -15.91 137.15 7 4 271
1946 SP EA 17:00:00 TS -15.85 136.89 1000 bom 11 10 P_____O__PP___ SH101946 -15.90 136.97 -1 -15.80 136.80 1000 -15.80 136.81 TC -15.91 137.00 7 5 274
1946 SP EA 18:00:00 TS -15.84 136.80 10 0 O_____P__PP___ jtwc_sh SH101946 -15.90 136.90 -1 -15.80 136.73 1000 -15.80 136.74 TC -15.91 136.92 7 5 275
1946 SP EA 21:00:00 TS -15.82 136.55 0 0 ______P__PP___ SH101946 -1 -15.80 136.50 1000 -15.80 136.52 TC -15.90 136.67 7 5 273
1946 SP EA 23:00:00 TS -15.82 136.38 0 0 ______P__PO___ SH101946 -1 -15.80 136.34 1000 -15.80 136.37 TC -15.90 136.50 7 5 276
1946 SP EA 23:30:00 TS -15.80 136.32 1000 bom 0 0 ______O__P____ SH101946 -1 -15.80 136.30 1000 -15.80 136.34 TC 7 5 282
1946 SP EA 1946-02-12 00:00:00 TS -15.80 136.30 0 _________O____ -1 -15.80 136.30 TC 30 1000 7 3 0